PWSweather.com
Personal Weather Stations
Station Observations
KNYSYRAC2
Fairmount Hills, Fairmount, NY 13219

Fairmount HillsFairmount, NY 13219

Lat: 43.03602, Lon: -76.247151

Elevation: 663

Station Type: Ambient Weather WS-2080

http://weather.cerchia.com

High Low Average
Temperature 0.0°F-17.8°F 0.0°F-17.8°F 0.0°F-17.8°F
Dew Point 0.0°F-17.8°F 0.0°F-17.8°F 0.0°F-17.8°F
Winds Calm Calm Calm Calm Calm Calm
Wind Gusts -- -- --
Humidity 0% 0% 0%
Pressure 0.00 in0.00 in 0.00 in0.00 in -
Precipitation 0.00 in0.00 in - -
Hour Temp Dew Point Humidity Winds Wind Gusts Pressure Precip Precip Rate Daily Precip Total
12:00 AM 27.0°F-2.8°C 18.3°F-7.6°C 69% 6.9 mph SSE11.1 kmh SSE 12.1 mph19.5 kmh 29.78 in1008.5 mb 0.00 in0.0 mm 0.00 in/hr0.0 mm/hr 0.00 in0.0 mm
12:15 AM 26.9°F-2.8°C 18.8°F-7.3°C 71% 5.1 mph SSE8.2 kmh SSE 7.6 mph12.2 kmh 29.78 in1008.5 mb 0.00 in0.0 mm 0.00 in/hr0.0 mm/hr 0.00 in0.0 mm
12:30 AM 26.9°F-2.8°C 19.1°F-7.2°C 72% 4.7 mph SE7.6 kmh SE 7.6 mph12.2 kmh 29.78 in1008.5 mb 0.00 in0.0 mm 0.00 in/hr0.0 mm/hr 0.00 in0.0 mm
12:45 AM 26.9°F-2.8°C 19.4°F-7.0°C 73% 6.9 mph SE11.1 kmh SE 8.3 mph13.4 kmh 29.78 in1008.5 mb 0.00 in0.0 mm 0.00 in/hr0.0 mm/hr 0.00 in0.0 mm
01:00 AM 27.0°F-2.8°C 19.6°F-6.9°C 73% 6.7 mph SE10.8 kmh SE 7.6 mph12.2 kmh 29.78 in1008.5 mb 0.00 in0.0 mm 0.00 in/hr0.0 mm/hr 0.00 in0.0 mm
01:15 AM 27.4°F-2.6°C 21.5°F-5.8°C 78% 7.1 mph SSW11.4 kmh SSW 9.8 mph15.8 kmh 29.78 in1008.5 mb 0.00 in0.0 mm 0.00 in/hr0.0 mm/hr 0.00 in0.0 mm
01:30 AM 27.6°F-2.4°C 21.3°F-5.9°C 77% 5.5 mph SSW8.9 kmh SSW 9.8 mph15.8 kmh 29.79 in1008.8 mb 0.00 in0.0 mm 0.00 in/hr0.0 mm/hr 0.00 in0.0 mm
01:45 AM 27.6°F-2.4°C 21.3°F-5.9°C 77% 7.6 mph SW12.2 kmh SW 11.4 mph18.3 kmh 29.80 in1009.1 mb 0.00 in0.0 mm 0.00 in/hr0.0 mm/hr 0.00 in0.0 mm
02:00 AM 27.6°F-2.4°C 21.3°F-5.9°C 77% 7.4 mph SW11.9 kmh SW 8.3 mph13.4 kmh 29.80 in1009.1 mb 0.00 in0.0 mm 0.00 in/hr0.0 mm/hr 0.00 in0.0 mm
02:15 AM 27.6°F-2.4°C 21.3°F-5.9°C 77% 8.4 mph SSW13.5 kmh SSW 11.4 mph18.3 kmh 29.81 in1009.5 mb 0.00 in0.0 mm 0.00 in/hr0.0 mm/hr 0.00 in0.0 mm
02:30 AM 27.8°F-2.3°C 21.2°F-6.0°C 76% 7.4 mph SW11.9 kmh SW 9.8 mph15.8 kmh 29.80 in1009.1 mb 0.00 in0.0 mm 0.00 in/hr0.0 mm/hr 0.00 in0.0 mm
02:45 AM 28.1°F-2.2°C 21.2°F-6.0°C 75% 7.7 mph WSW12.4 kmh WSW 9.8 mph15.8 kmh 29.82 in1009.8 mb 0.00 in0.0 mm 0.00 in/hr0.0 mm/hr 0.00 in0.0 mm
03:00 AM 28.3°F-2.1°C 21.4°F-5.9°C 75% 7.3 mph SW11.7 kmh SW 10.7 mph17.2 kmh 29.82 in1009.8 mb 0.00 in0.0 mm 0.00 in/hr0.0 mm/hr 0.00 in0.0 mm
03:15 AM 28.3°F-2.1°C 21.4°F-5.9°C 75% 5.9 mph WSW9.5 kmh WSW 7.6 mph12.2 kmh 29.82 in1009.8 mb 0.00 in0.0 mm 0.00 in/hr0.0 mm/hr 0.00 in0.0 mm
03:30 AM 28.3°F-2.1°C 21.4°F-5.9°C 75% 5.4 mph W8.7 kmh W 8.3 mph13.4 kmh 29.82 in1009.8 mb 0.00 in0.0 mm 0.00 in/hr0.0 mm/hr 0.00 in0.0 mm
03:45 AM 28.3°F-2.1°C 21.7°F-5.7°C 76% 4.5 mph WSW7.2 kmh WSW 8.3 mph13.4 kmh 29.82 in1009.8 mb 0.00 in0.0 mm 0.00 in/hr0.0 mm/hr 0.00 in0.0 mm
04:00 AM 28.3°F-2.1°C 21.7°F-5.7°C 76% 5.1 mph W8.2 kmh W 6.9 mph11.1 kmh 29.82 in1009.8 mb 0.00 in0.0 mm 0.00 in/hr0.0 mm/hr 0.00 in0.0 mm
04:15 AM 28.3°F-2.1°C 21.7°F-5.7°C 76% 4.6 mph WNW7.4 kmh WNW 6.9 mph11.1 kmh 29.84 in1010.5 mb 0.00 in0.0 mm 0.00 in/hr0.0 mm/hr 0.00 in0.0 mm
04:30 AM 28.1°F-2.2°C 21.9°F-5.6°C 77% 3.7 mph WSW6.0 kmh WSW 4.5 mph7.2 kmh 29.83 in1010.2 mb 0.00 in0.0 mm 0.00 in/hr0.0 mm/hr 0.00 in0.0 mm
04:45 AM 28.1°F-2.2°C 21.9°F-5.6°C 77% 4.3 mph WNW6.9 kmh WNW 6.0 mph9.7 kmh 29.84 in1010.5 mb 0.00 in0.0 mm 0.00 in/hr0.0 mm/hr 0.00 in0.0 mm
05:00 AM 27.9°F-2.3°C 21.7°F-5.7°C 77% 4.9 mph W7.9 kmh W 6.9 mph11.1 kmh 29.84 in1010.5 mb 0.00 in0.0 mm 0.00 in/hr0.0 mm/hr 0.00 in0.0 mm
05:15 AM 27.9°F-2.3°C 21.7°F-5.7°C 77% 7.9 mph WNW12.7 kmh WNW 9.2 mph14.8 kmh 29.84 in1010.5 mb 0.00 in0.0 mm 0.00 in/hr0.0 mm/hr 0.00 in0.0 mm
05:30 AM 27.8°F-2.3°C 21.5°F-5.8°C 77% 7.4 mph NW11.9 kmh NW 10.7 mph17.2 kmh 29.85 in1010.8 mb 0.00 in0.0 mm 0.00 in/hr0.0 mm/hr 0.00 in0.0 mm
05:45 AM 27.6°F-2.4°C 21.3°F-5.9°C 77% 6.2 mph NW10.0 kmh NW 7.6 mph12.2 kmh 29.84 in1010.5 mb 0.00 in0.0 mm 0.00 in/hr0.0 mm/hr 0.00 in0.0 mm
06:00 AM 27.2°F-2.7°C 19.7°F-6.8°C 73% 7.6 mph NW12.2 kmh NW 10.7 mph17.2 kmh 29.85 in1010.8 mb 0.00 in0.0 mm 0.00 in/hr0.0 mm/hr 0.00 in0.0 mm
06:15 AM 26.9°F-2.8°C 19.4°F-7.0°C 73% 9.1 mph NW14.6 kmh NW 13.6 mph21.9 kmh 29.86 in1011.2 mb 0.00 in0.0 mm 0.00 in/hr0.0 mm/hr 0.00 in0.0 mm
06:30 AM 26.7°F-2.9°C 19.2°F-7.1°C 73% 7.3 mph NW11.7 kmh NW 10.7 mph17.2 kmh 29.86 in1011.2 mb 0.00 in0.0 mm 0.00 in/hr0.0 mm/hr 0.00 in0.0 mm
06:45 AM 26.5°F-3.1°C 18.7°F-7.4°C 72% 8.7 mph NW14.0 kmh NW 10.7 mph17.2 kmh 29.88 in1011.9 mb 0.00 in0.0 mm 0.00 in/hr0.0 mm/hr 0.00 in0.0 mm
07:00 AM 26.3°F-3.2°C 18.6°F-7.4°C 72% 6.0 mph NNW9.7 kmh NNW 9.8 mph15.8 kmh 29.89 in1012.2 mb 0.00 in0.0 mm 0.00 in/hr0.0 mm/hr 0.00 in0.0 mm
07:15 AM 26.1°F-3.3°C 18.1°F-7.7°C 71% 5.2 mph WNW8.4 kmh WNW 8.3 mph13.4 kmh 29.89 in1012.2 mb 0.00 in0.0 mm 0.00 in/hr0.0 mm/hr 0.00 in0.0 mm
07:30 AM 26.0°F-3.3°C 17.9°F-7.8°C 71% 5.1 mph NNW8.2 kmh NNW 7.6 mph12.2 kmh 29.90 in1012.5 mb 0.00 in0.0 mm 0.00 in/hr0.0 mm/hr 0.00 in0.0 mm
07:45 AM 25.8°F-3.4°C 17.7°F-7.9°C 71% 7.0 mph NW11.3 kmh NW 9.8 mph15.8 kmh 29.91 in1012.9 mb 0.00 in0.0 mm 0.00 in/hr0.0 mm/hr 0.00 in0.0 mm
08:00 AM 25.8°F-3.4°C 17.7°F-7.9°C 71% 8.5 mph NW13.7 kmh NW 11.4 mph18.3 kmh 29.91 in1012.9 mb 0.00 in0.0 mm 0.00 in/hr0.0 mm/hr 0.00 in0.0 mm
08:15 AM 25.4°F-3.7°C 17.4°F-8.1°C 71% 7.0 mph NW11.3 kmh NW 8.3 mph13.4 kmh 29.92 in1013.2 mb 0.00 in0.0 mm 0.00 in/hr0.0 mm/hr 0.00 in0.0 mm
08:30 AM 24.9°F-3.9°C 16.9°F-8.4°C 71% 9.1 mph NW14.6 kmh NW 11.4 mph18.3 kmh 29.93 in1013.5 mb 0.00 in0.0 mm 0.00 in/hr0.0 mm/hr 0.00 in0.0 mm
08:45 AM 24.3°F-4.3°C 16.3°F-8.7°C 71% 9.2 mph NW14.8 kmh NW 11.4 mph18.3 kmh 29.93 in1013.5 mb 0.00 in0.0 mm 0.00 in/hr0.0 mm/hr 0.00 in0.0 mm
09:00 AM 24.0°F-4.4°C 16.3°F-8.7°C 72% 9.5 mph NNW15.3 kmh NNW 14.5 mph23.3 kmh 29.94 in1013.9 mb 0.00 in0.0 mm 0.00 in/hr0.0 mm/hr 0.00 in0.0 mm
09:15 AM 24.0°F-4.4°C 16.6°F-8.6°C 73% 8.1 mph NNW13.0 kmh NNW 13.0 mph20.9 kmh 29.95 in1014.2 mb 0.00 in0.0 mm 0.00 in/hr0.0 mm/hr 0.00 in0.0 mm
09:30 AM 24.0°F-4.4°C 16.6°F-8.6°C 73% 7.1 mph N11.4 kmh N 11.4 mph18.3 kmh 29.96 in1014.6 mb 0.00 in0.0 mm 0.00 in/hr0.0 mm/hr 0.00 in0.0 mm
09:45 AM 24.0°F-4.4°C 16.6°F-8.6°C 73% 6.5 mph N10.5 kmh N 6.9 mph11.1 kmh 29.97 in1014.9 mb 0.00 in0.0 mm 0.00 in/hr0.0 mm/hr 0.00 in0.0 mm
10:00 AM 24.2°F-4.3°C 16.8°F-8.4°C 73% 7.5 mph N12.1 kmh N 11.4 mph18.3 kmh 29.97 in1014.9 mb 0.00 in0.0 mm 0.00 in/hr0.0 mm/hr 0.00 in0.0 mm
10:15 AM 24.5°F-4.2°C 17.1°F-8.3°C 73% 7.5 mph N12.1 kmh N 8.3 mph13.4 kmh 29.97 in1014.9 mb 0.00 in0.0 mm 0.00 in/hr0.0 mm/hr 0.00 in0.0 mm
10:30 AM 24.7°F-4.1°C 17.0°F-8.3°C 72% 7.3 mph NW11.7 kmh NW 8.3 mph13.4 kmh 29.98 in1015.2 mb 0.00 in0.0 mm 0.00 in/hr0.0 mm/hr 0.00 in0.0 mm
10:45 AM 24.2°F-4.3°C 16.2°F-8.8°C 71% 9.6 mph NNW15.4 kmh NNW 14.5 mph23.3 kmh 29.99 in1015.6 mb 0.00 in0.0 mm 0.00 in/hr0.0 mm/hr 0.00 in0.0 mm
11:00 AM 23.1°F-4.9°C 15.1°F-9.4°C 71% 10.0 mph N16.1 kmh N 13.0 mph20.9 kmh 30.00 in1015.9 mb 0.00 in0.0 mm 0.00 in/hr0.0 mm/hr 0.00 in0.0 mm
11:15 AM 22.4°F-5.3°C 14.1°F-9.9°C 70% 10.3 mph NW16.6 kmh NW 11.4 mph18.3 kmh 30.01 in1016.3 mb 0.00 in0.0 mm 0.00 in/hr0.0 mm/hr 0.00 in0.0 mm
11:30 AM 22.0°F-5.6°C 13.1°F-10.5°C 68% 9.9 mph NW15.9 kmh NW 12.1 mph19.5 kmh 30.01 in1016.3 mb 0.00 in0.0 mm 0.00 in/hr0.0 mm/hr 0.00 in0.0 mm
11:45 AM 21.5°F-5.8°C 12.3°F-10.9°C 67% 10.1 mph NW16.3 kmh NW 13.0 mph20.9 kmh 30.02 in1016.6 mb 0.00 in0.0 mm 0.00 in/hr0.0 mm/hr 0.00 in0.0 mm
12:00 PM 20.4°F-6.4°C 10.5°F-11.9°C 65% 13.8 mph NW22.2 kmh NW 16.8 mph27.0 kmh 30.02 in1016.6 mb 0.00 in0.0 mm 0.00 in/hr0.0 mm/hr 0.00 in0.0 mm
12:15 PM 19.8°F-6.8°C 9.7°F-12.4°C 64% 9.4 mph NW15.1 kmh NW 10.7 mph17.2 kmh 30.02 in1016.6 mb 0.00 in0.0 mm 0.00 in/hr0.0 mm/hr 0.00 in0.0 mm
12:30 PM 19.8°F-6.8°C 9.3°F-12.6°C 63% 11.2 mph NW18.0 kmh NW 15.9 mph25.6 kmh 30.02 in1016.6 mb 0.00 in0.0 mm 0.00 in/hr0.0 mm/hr 0.00 in0.0 mm
12:45 PM 19.3°F-7.1°C 8.5°F-13.1°C 62% 11.7 mph NNW18.8 kmh NNW 14.5 mph23.3 kmh 30.02 in1016.6 mb 0.00 in0.0 mm 0.00 in/hr0.0 mm/hr 0.00 in0.0 mm
01:00 PM 19.3°F-7.1°C 8.5°F-13.1°C 62% 11.7 mph NNE18.8 kmh NNE 12.1 mph19.5 kmh 30.02 in1016.6 mb 0.00 in0.0 mm 0.00 in/hr0.0 mm/hr 0.00 in0.0 mm
01:15 PM 18.9°F-7.3°C 7.8°F-13.4°C 61% 10.9 mph NNW17.5 kmh NNW 13.0 mph20.9 kmh 30.03 in1016.9 mb 0.00 in0.0 mm 0.00 in/hr0.0 mm/hr 0.00 in0.0 mm
01:30 PM 17.9°F-7.8°C 3.3°F-15.9°C 52% 12.0 mph NNW19.3 kmh NNW 14.5 mph23.3 kmh 30.04 in1017.3 mb 0.00 in0.0 mm 0.00 in/hr0.0 mm/hr 0.00 in0.0 mm
01:45 PM 18.6°F-7.4°C 6.3°F-14.3°C 58% 9.1 mph N14.6 kmh N 13.6 mph21.9 kmh 30.04 in1017.3 mb 0.00 in0.0 mm 0.00 in/hr0.0 mm/hr 0.00 in0.0 mm
02:00 PM 17.5°F-8.1°C 3.4°F-15.9°C 53% 11.1 mph NW17.9 kmh NW 15.2 mph24.5 kmh 30.06 in1017.9 mb 0.00 in0.0 mm 0.00 in/hr0.0 mm/hr 0.00 in0.0 mm
02:15 PM 17.1°F-8.3°C 3.8°F-15.7°C 55% 10.5 mph N16.9 kmh N 15.2 mph24.5 kmh 30.06 in1017.9 mb 0.00 in0.0 mm 0.00 in/hr0.0 mm/hr 0.00 in0.0 mm
02:30 PM 17.3°F-8.2°C 4.8°F-15.1°C 57% 10.8 mph WNW17.4 kmh WNW 13.6 mph21.9 kmh 30.06 in1017.9 mb 0.00 in0.0 mm 0.00 in/hr0.0 mm/hr 0.00 in0.0 mm
02:45 PM 17.3°F-8.2°C 4.0°F-15.6°C 55% 14.6 mph NNW23.5 kmh NNW 19.0 mph30.6 kmh 30.07 in1018.3 mb 0.00 in0.0 mm 0.00 in/hr0.0 mm/hr 0.00 in0.0 mm
03:00 PM 16.1°F-8.8°C 2.0°F-16.7°C 53% 12.4 mph NW20.0 kmh NW 17.4 mph28.0 kmh 30.07 in1018.3 mb 0.00 in0.0 mm 0.00 in/hr0.0 mm/hr 0.00 in0.0 mm
03:15 PM 15.9°F-8.9°C 2.6°F-16.3°C 55% 9.9 mph NW15.9 kmh NW 13.6 mph21.9 kmh 30.09 in1019.0 mb 0.00 in0.0 mm 0.00 in/hr0.0 mm/hr 0.00 in0.0 mm
03:30 PM 15.3°F-9.3°C 2.9°F-16.2°C 57% 9.9 mph NW15.9 kmh NW 13.6 mph21.9 kmh 30.09 in1019.0 mb 0.00 in0.0 mm 0.00 in/hr0.0 mm/hr 0.00 in0.0 mm
03:45 PM 15.2°F-9.3°C 3.5°F-15.8°C 59% 8.1 mph NW13.0 kmh NW 10.7 mph17.2 kmh 30.10 in1019.3 mb 0.00 in0.0 mm 0.00 in/hr0.0 mm/hr 0.00 in0.0 mm
04:00 PM 15.2°F-9.3°C 3.8°F-15.7°C 60% 7.7 mph WNW12.4 kmh WNW 11.4 mph18.3 kmh 30.11 in1019.6 mb 0.00 in0.0 mm 0.00 in/hr0.0 mm/hr 0.00 in0.0 mm
04:15 PM 15.0°F-9.4°C 3.7°F-15.7°C 60% 6.7 mph NW10.8 kmh NW 9.8 mph15.8 kmh 30.12 in1020.0 mb 0.00 in0.0 mm 0.00 in/hr0.0 mm/hr 0.00 in0.0 mm
04:30 PM 14.8°F-9.6°C 3.9°F-15.6°C 61% 10.8 mph NW17.4 kmh NW 13.6 mph21.9 kmh 30.12 in1020.0 mb 0.00 in0.0 mm 0.00 in/hr0.0 mm/hr 0.00 in0.0 mm
04:45 PM 14.6°F-9.7°C 4.0°F-15.6°C 62% 6.8 mph NW10.9 kmh NW 8.3 mph13.4 kmh 30.13 in1020.3 mb 0.00 in0.0 mm 0.00 in/hr0.0 mm/hr 0.00 in0.0 mm
05:00 PM 14.4°F-9.8°C 4.2°F-15.4°C 63% 5.0 mph NW8.0 kmh NW 6.9 mph11.1 kmh 30.13 in1020.3 mb 0.00 in0.0 mm 0.00 in/hr0.0 mm/hr 0.00 in0.0 mm
05:15 PM 14.4°F-9.8°C 4.6°F-15.2°C 64% 7.2 mph WNW11.6 kmh WNW 10.7 mph17.2 kmh 30.14 in1020.7 mb 0.00 in0.0 mm 0.00 in/hr0.0 mm/hr 0.00 in0.0 mm
05:30 PM 14.4°F-9.8°C 4.9°F-15.1°C 65% 6.3 mph W10.1 kmh W 8.3 mph13.4 kmh 30.14 in1020.7 mb 0.00 in0.0 mm 0.00 in/hr0.0 mm/hr 0.00 in0.0 mm
05:45 PM 14.6°F-9.7°C 5.4°F-14.8°C 66% 9.9 mph W15.9 kmh W 11.4 mph18.3 kmh 30.14 in1020.7 mb 0.00 in0.0 mm 0.00 in/hr0.0 mm/hr 0.00 in0.0 mm
06:00 PM 14.4°F-9.8°C 5.2°F-14.9°C 66% 8.8 mph NW14.2 kmh NW 11.4 mph18.3 kmh 30.15 in1021.0 mb 0.00 in0.0 mm 0.00 in/hr0.0 mm/hr 0.00 in0.0 mm
06:15 PM 14.4°F-9.8°C 5.2°F-14.9°C 66% 8.0 mph NW12.9 kmh NW 11.4 mph18.3 kmh 30.15 in1021.0 mb 0.00 in0.0 mm 0.00 in/hr0.0 mm/hr 0.00 in0.0 mm
06:30 PM 14.3°F-9.8°C 5.1°F-14.9°C 66% 8.4 mph WNW13.5 kmh WNW 12.1 mph19.5 kmh 30.16 in1021.3 mb 0.00 in0.0 mm 0.00 in/hr0.0 mm/hr 0.00 in0.0 mm
06:45 PM 14.3°F-9.8°C 5.1°F-14.9°C 66% 6.5 mph WNW10.5 kmh WNW 11.4 mph18.3 kmh 30.17 in1021.7 mb 0.00 in0.0 mm 0.00 in/hr0.0 mm/hr 0.00 in0.0 mm
07:00 PM 13.4°F-10.3°C 3.9°F-15.6°C 65% 5.5 mph NW8.9 kmh NW 6.0 mph9.7 kmh 30.17 in1021.7 mb 0.00 in0.0 mm 0.00 in/hr0.0 mm/hr 0.00 in0.0 mm
07:15 PM 12.8°F-10.7°C 3.7°F-15.7°C 66% 5.8 mph W9.3 kmh W 6.9 mph11.1 kmh 30.18 in1022.0 mb 0.00 in0.0 mm 0.00 in/hr0.0 mm/hr 0.00 in0.0 mm
07:30 PM 13.0°F-10.6°C 3.2°F-16.0°C 64% 6.1 mph NW9.8 kmh NW 7.6 mph12.2 kmh 30.18 in1022.0 mb 0.00 in0.0 mm 0.00 in/hr0.0 mm/hr 0.00 in0.0 mm
07:45 PM 13.0°F-10.6°C 3.2°F-16.0°C 64% 4.9 mph WNW7.9 kmh WNW 8.3 mph13.4 kmh 30.19 in1022.4 mb 0.00 in0.0 mm 0.00 in/hr0.0 mm/hr 0.00 in0.0 mm
08:00 PM 13.0°F-10.6°C 3.2°F-16.0°C 64% 4.5 mph NW7.2 kmh NW 5.4 mph8.7 kmh 30.19 in1022.4 mb 0.00 in0.0 mm 0.00 in/hr0.0 mm/hr 0.00 in0.0 mm
08:15 PM 13.4°F-10.3°C 3.2°F-16.0°C 63% 11.0 mph NW17.7 kmh NW 15.9 mph25.6 kmh 30.19 in1022.4 mb 0.00 in0.0 mm 0.00 in/hr0.0 mm/hr 0.00 in0.0 mm
08:30 PM 13.5°F-10.3°C -0.3°F-17.9°C 53% 13.8 mph NNW22.2 kmh NNW 18.3 mph29.5 kmh 30.19 in1022.4 mb 0.00 in0.0 mm 0.00 in/hr0.0 mm/hr 0.00 in0.0 mm
08:45 PM 13.4°F-10.3°C -1.7°F-18.7°C 50% 10.6 mph NNW17.1 kmh NNW 13.6 mph21.9 kmh 30.20 in1022.7 mb 0.00 in0.0 mm 0.00 in/hr0.0 mm/hr 0.00 in0.0 mm
09:00 PM 13.2°F-10.4°C -1.9°F-18.8°C 50% 9.1 mph N14.6 kmh N 14.5 mph23.3 kmh 30.24 in1024.0 mb 0.00 in0.0 mm 0.00 in/hr0.0 mm/hr 0.00 in0.0 mm
09:15 PM 13.0°F-10.6°C -2.5°F-19.2°C 49% 6.0 mph NNW9.7 kmh NNW 11.4 mph18.3 kmh 30.22 in1023.4 mb 0.00 in0.0 mm 0.00 in/hr0.0 mm/hr 0.00 in0.0 mm
09:30 PM 12.6°F-10.8°C -2.0°F-18.9°C 51% 7.4 mph NNW11.9 kmh NNW 9.2 mph14.8 kmh 30.22 in1023.4 mb 0.00 in0.0 mm 0.00 in/hr0.0 mm/hr 0.00 in0.0 mm
09:45 PM 12.5°F-10.8°C -2.1°F-18.9°C 51% 8.4 mph NNW13.5 kmh NNW 15.2 mph24.5 kmh 30.22 in1023.4 mb 0.00 in0.0 mm 0.00 in/hr0.0 mm/hr 0.00 in0.0 mm
10:00 PM 12.1°F-11.1°C -2.9°F-19.4°C 50% 12.3 mph NW19.8 kmh NW 15.2 mph24.5 kmh 30.23 in1023.7 mb 0.00 in0.0 mm 0.00 in/hr0.0 mm/hr 0.00 in0.0 mm
10:15 PM 11.6°F-11.3°C -3.8°F-19.9°C 49% 10.0 mph NW16.1 kmh NW 13.6 mph21.9 kmh 30.23 in1023.7 mb 0.00 in0.0 mm 0.00 in/hr0.0 mm/hr 0.00 in0.0 mm
10:30 PM 11.2°F-11.6°C -4.6°F-20.3°C 48% 9.1 mph NNW14.6 kmh NNW 13.0 mph20.9 kmh 30.23 in1023.7 mb 0.00 in0.0 mm 0.00 in/hr0.0 mm/hr 0.00 in0.0 mm
10:45 PM 10.7°F-11.8°C -4.6°F-20.3°C 49% 11.0 mph NW17.7 kmh NW 13.6 mph21.9 kmh 30.24 in1024.0 mb 0.00 in0.0 mm 0.00 in/hr0.0 mm/hr 0.00 in0.0 mm
11:00 PM 10.1°F-12.2°C -4.3°F-20.2°C 51% 9.8 mph NNW15.8 kmh NNW 13.6 mph21.9 kmh 30.24 in1024.0 mb 0.00 in0.0 mm 0.00 in/hr0.0 mm/hr 0.00 in0.0 mm
11:15 PM 9.9°F-12.3°C -4.1°F-20.1°C 52% 9.7 mph NNW15.6 kmh NNW 13.0 mph20.9 kmh 30.25 in1024.4 mb 0.00 in0.0 mm 0.00 in/hr0.0 mm/hr 0.00 in0.0 mm
11:30 PM 8.9°F-12.8°C -5.9°F-21.1°C 50% 9.7 mph NNW15.6 kmh NNW 13.0 mph20.9 kmh 30.25 in1024.4 mb 0.00 in0.0 mm 0.00 in/hr0.0 mm/hr 0.00 in0.0 mm
11:45 PM 8.5°F-13.1°C -5.4°F-20.8°C 52% 6.9 mph NNW11.1 kmh NNW 10.7 mph17.2 kmh 30.25 in1024.4 mb 0.00 in0.0 mm 0.00 in/hr0.0 mm/hr 0.00 in0.0 mm